sensor_id;sensor_type;location;lat;lon;timestamp;pressure;altitude;pressure_sealevel;temperature;humidity
56198;BME280;42700;42.524;12.052;2023-05-29T00:01:51;93504.34;;;19.17;100.00
56198;BME280;42700;42.524;12.052;2023-05-29T00:04:17;93765.09;;;19.26;100.00
56198;BME280;42700;42.524;12.052;2023-05-29T00:06:43;93820.78;;;19.26;100.00
56198;BME280;42700;42.524;12.052;2023-05-29T00:09:09;93942.75;;;19.30;100.00
56198;BME280;42700;42.524;12.052;2023-05-29T00:11:34;93992.72;;;19.31;100.00
56198;BME280;42700;42.524;12.052;2023-05-29T00:14:00;94043.50;;;19.32;100.00
56198;BME280;42700;42.524;12.052;2023-05-29T00:16:25;94015.06;;;19.31;100.00
56198;BME280;42700;42.524;12.052;2023-05-29T00:18:51;93794.22;;;19.24;100.00
56198;BME280;42700;42.524;12.052;2023-05-29T00:21:17;93682.56;;;19.18;100.00
56198;BME280;42700;42.524;12.052;2023-05-29T00:23:42;93744.91;;;19.20;100.00
56198;BME280;42700;42.524;12.052;2023-05-29T00:26:08;93891.03;;;19.24;100.00
56198;BME280;42700;42.524;12.052;2023-05-29T00:28:34;94007.63;;;19.28;100.00
56198;BME280;42700;42.524;12.052;2023-05-29T00:31:00;94049.53;;;19.29;100.00
56198;BME280;42700;42.524;12.052;2023-05-29T00:33:25;94049.53;;;19.29;100.00
56198;BME280;42700;42.524;12.052;2023-05-29T00:35:51;94115.03;;;19.33;100.00
56198;BME280;42700;42.524;12.052;2023-05-29T00:38:16;94252.06;;;19.39;100.00
56198;BME280;42700;42.524;12.052;2023-05-29T00:40:42;94384.50;;;19.44;100.00
56198;BME280;42700;42.524;12.052;2023-05-29T00:43:07;94757.34;;;19.59;100.00
56198;BME280;42700;42.524;12.052;2023-05-29T00:45:33;94864.56;;;19.66;100.00
56198;BME280;42700;42.524;12.052;2023-05-29T00:48:02;94935.56;;;19.70;100.00
56198;BME280;42700;42.524;12.052;2023-05-29T00:50:28;95084.81;;;19.78;100.00
56198;BME280;42700;42.524;12.052;2023-05-29T00:52:54;95088.03;;;19.80;100.00
56198;BME280;42700;42.524;12.052;2023-05-29T00:55:19;95131.63;;;19.82;100.00
56198;BME280;42700;42.524;12.052;2023-05-29T00:57:45;95198.03;;;19.86;100.00
56198;BME280;42700;42.524;12.052;2023-05-29T01:00:12;95052.44;;;19.83;100.00
56198;BME280;42700;42.524;12.052;2023-05-29T01:02:42;94927.59;;;19.79;100.00
56198;BME280;42700;42.524;12.052;2023-05-29T01:05:10;94856.00;;;19.78;100.00
56198;BME280;42700;42.524;12.052;2023-05-29T01:07:37;94802.47;;;19.76;100.00
56198;BME280;42700;42.524;12.052;2023-05-29T01:10:02;94573.28;;;19.69;100.00
56198;BME280;42700;42.524;12.052;2023-05-29T01:12:45;94373.78;;;19.62;100.00
56198;BME280;42700;42.524;12.052;2023-05-29T01:15:14;94266.00;;;19.58;100.00
56198;BME280;42700;42.524;12.052;2023-05-29T01:22:54;93925.75;;;19.47;100.00
56198;BME280;42700;42.524;12.052;2023-05-29T01:25:24;93760.25;;;19.41;100.00
56198;BME280;42700;42.524;12.052;2023-05-29T01:27:55;93692.88;;;19.37;100.00
56198;BME280;42700;42.524;12.052;2023-05-29T01:30:21;93633.25;;;19.35;100.00
56198;BME280;42700;42.524;12.052;2023-05-29T01:32:48;93527.78;;;19.29;100.00
56198;BME280;42700;42.524;12.052;2023-05-29T01:35:13;93447.78;;;19.26;100.00
56198;BME280;42700;42.524;12.052;2023-05-29T01:37:39;93291.59;;;19.19;100.00
56198;BME280;42700;42.524;12.052;2023-05-29T01:40:04;93392.34;;;19.22;100.00
56198;BME280;42700;42.524;12.052;2023-05-29T01:42:30;93423.78;;;19.21;100.00
56198;BME280;42700;42.524;12.052;2023-05-29T01:44:56;93331.50;;;19.17;100.00
56198;BME280;42700;42.524;12.052;2023-05-29T01:47:23;93274.59;;;19.15;100.00
56198;BME280;42700;42.524;12.052;2023-05-29T01:49:50;93235.28;;;19.10;100.00
56198;BME280;42700;42.524;12.052;2023-05-29T01:52:16;93192.94;;;19.07;100.00
56198;BME280;42700;42.524;12.052;2023-05-29T01:54:43;93068.31;;;18.99;100.00
56198;BME280;42700;42.524;12.052;2023-05-29T01:57:08;92976.75;;;18.92;100.00
56198;BME280;42700;42.524;12.052;2023-05-29T01:59:34;93049.31;;;18.92;100.00
56198;BME280;42700;42.524;12.052;2023-05-29T02:02:10;92919.00;;;18.86;100.00
56198;BME280;42700;42.524;12.052;2023-05-29T02:04:37;92670.00;;;18.74;100.00
56198;BME280;42700;42.524;12.052;2023-05-29T02:07:03;92473.25;;;18.61;100.00
56198;BME280;42700;42.524;12.052;2023-05-29T02:09:29;91864.53;;;18.35;100.00
56198;BME280;42700;42.524;12.052;2023-05-29T02:11:55;92685.88;;;18.63;100.00
56198;BME280;42700;42.524;12.052;2023-05-29T02:14:21;93383.66;;;18.91;100.00
56198;BME280;42700;42.524;12.052;2023-05-29T02:16:46;93561.97;;;18.95;100.00
56198;BME280;42700;42.524;12.052;2023-05-29T02:19:14;93776.16;;;19.04;100.00
56198;BME280;42700;42.524;12.052;2023-05-29T02:21:39;94196.69;;;19.20;100.00
56198;BME280;42700;42.524;12.052;2023-05-29T02:24:06;94445.41;;;19.31;100.00
56198;BME280;42700;42.524;12.052;2023-05-29T02:26:32;94521.69;;;19.35;100.00
56198;BME280;42700;42.524;12.052;2023-05-29T02:28:58;94810.13;;;19.46;100.00
56198;BME280;42700;42.524;12.052;2023-05-29T02:31:23;95041.34;;;19.57;100.00
56198;BME280;42700;42.524;12.052;2023-05-29T02:33:48;95254.59;;;19.67;100.00
56198;BME280;42700;42.524;12.052;2023-05-29T02:36:14;95164.47;;;19.65;100.00
56198;BME280;42700;42.524;12.052;2023-05-29T02:38:41;95434.06;;;19.77;100.00
56198;BME280;42700;42.524;12.052;2023-05-29T02:41:07;95440.75;;;19.80;100.00
56198;BME280;42700;42.524;12.052;2023-05-29T02:43:32;95474.09;;;19.84;100.00
56198;BME280;42700;42.524;12.052;2023-05-29T02:45:58;95641.53;;;19.91;100.00
56198;BME280;42700;42.524;12.052;2023-05-29T02:48:23;95864.97;;;20.01;100.00
56198;BME280;42700;42.524;12.052;2023-05-29T02:50:48;96005.28;;;20.10;100.00
56198;BME280;42700;42.524;12.052;2023-05-29T02:53:15;96007.41;;;20.13;100.00
56198;BME280;42700;42.524;12.052;2023-05-29T02:55:40;95998.78;;;20.16;100.00
56198;BME280;42700;42.524;12.052;2023-05-29T02:58:06;95998.22;;;20.19;100.00
56198;BME280;42700;42.524;12.052;2023-05-29T03:00:31;96132.66;;;20.26;100.00
56198;BME280;42700;42.524;12.052;2023-05-29T03:02:57;96079.56;;;20.26;100.00
56198;BME280;42700;42.524;12.052;2023-05-29T03:05:22;96104.34;;;20.28;100.00
56198;BME280;42700;42.524;12.052;2023-05-29T03:07:48;96081.41;;;20.31;100.00
56198;BME280;42700;42.524;12.052;2023-05-29T03:10:13;96261.44;;;20.39;100.00
56198;BME280;42700;42.524;12.052;2023-05-29T03:12:42;95921.06;;;20.28;100.00
56198;BME280;42700;42.524;12.052;2023-05-29T03:15:09;95786.09;;;20.25;100.00
56198;BME280;42700;42.524;12.052;2023-05-29T03:17:34;95869.59;;;20.30;100.00
56198;BME280;42700;42.524;12.052;2023-05-29T03:20:03;95479.28;;;20.18;100.00
56198;BME280;42700;42.524;12.052;2023-05-29T03:22:31;95758.56;;;20.28;100.00
56198;BME280;42700;42.524;12.052;2023-05-29T03:24:57;95629.81;;;20.25;100.00
56198;BME280;42700;42.524;12.052;2023-05-29T03:27:22;95581.28;;;20.25;100.00
56198;BME280;42700;42.524;12.052;2023-05-29T03:29:48;95120.88;;;20.09;100.00
56198;BME280;42700;42.524;12.052;2023-05-29T03:32:14;95479.47;;;20.22;100.00
56198;BME280;42700;42.524;12.052;2023-05-29T03:34:39;95452.53;;;20.22;100.00
56198;BME280;42700;42.524;12.052;2023-05-29T03:37:05;95254.34;;;20.16;100.00
56198;BME280;42700;42.524;12.052;2023-05-29T03:39:31;95318.41;;;20.19;100.00
56198;BME280;42700;42.524;12.052;2023-05-29T03:41:56;95269.41;;;20.17;100.00
56198;BME280;42700;42.524;12.052;2023-05-29T03:44:22;94566.41;;;19.94;100.00
56198;BME280;42700;42.524;12.052;2023-05-29T03:46:47;94922.94;;;20.07;100.00
56198;BME280;42700;42.524;12.052;2023-05-29T03:49:15;95348.56;;;20.21;100.00
56198;BME280;42700;42.524;12.052;2023-05-29T03:51:40;95010.44;;;20.09;100.00
56198;BME280;42700;42.524;12.052;2023-05-29T03:54:05;95094.91;;;20.14;100.00
56198;BME280;42700;42.524;12.052;2023-05-29T03:56:31;95004.44;;;20.13;100.00
56198;BME280;42700;42.524;12.052;2023-05-29T03:58:56;94978.88;;;20.10;100.00
56198;BME280;42700;42.524;12.052;2023-05-29T04:01:22;95132.03;;;20.17;100.00
56198;BME280;42700;42.524;12.052;2023-05-29T04:03:47;95554.00;;;20.32;100.00
56198;BME280;42700;42.524;12.052;2023-05-29T04:06:13;95822.59;;;20.41;100.00
56198;BME280;42700;42.524;12.052;2023-05-29T04:08:38;95352.75;;;20.27;100.00
56198;BME280;42700;42.524;12.052;2023-05-29T04:11:04;95784.84;;;20.41;100.00
56198;BME280;42700;42.524;12.052;2023-05-29T04:13:30;95796.66;;;20.45;100.00
56198;BME280;42700;42.524;12.052;2023-05-29T04:15:55;95803.66;;;20.46;100.00
56198;BME280;42700;42.524;12.052;2023-05-29T04:18:21;96107.94;;;20.58;100.00
56198;BME280;42700;42.524;12.052;2023-05-29T04:20:46;95735.19;;;20.48;100.00
56198;BME280;42700;42.524;12.052;2023-05-29T04:23:12;95896.59;;;20.54;100.00
56198;BME280;42700;42.524;12.052;2023-05-29T04:25:38;95977.72;;;20.58;100.00
56198;BME280;42700;42.524;12.052;2023-05-29T04:28:04;95845.09;;;20.56;100.00
56198;BME280;42700;42.524;12.052;2023-05-29T04:30:30;96065.06;;;20.67;100.00
56198;BME280;42700;42.524;12.052;2023-05-29T04:32:57;95760.41;;;20.57;100.00
56198;BME280;42700;42.524;12.052;2023-05-29T04:35:24;96842.41;;;20.95;100.00
56198;BME280;42700;42.524;12.052;2023-05-29T04:37:50;96987.94;;;21.07;100.00
56198;BME280;42700;42.524;12.052;2023-05-29T04:40:15;97152.09;;;21.15;100.00
56198;BME280;42700;42.524;12.052;2023-05-29T04:42:42;97192.66;;;21.20;100.00
56198;BME280;42700;42.524;12.052;2023-05-29T04:45:11;97080.09;;;21.20;100.00
56198;BME280;42700;42.524;12.052;2023-05-29T04:47:36;96553.16;;;21.08;100.00
56198;BME280;42700;42.524;12.052;2023-05-29T04:50:09;97092.81;;;21.25;100.00
56198;BME280;42700;42.524;12.052;2023-05-29T04:52:36;96949.97;;;21.24;100.00
56198;BME280;42700;42.524;12.052;2023-05-29T04:55:02;97518.13;;;21.50;100.00
56198;BME280;42700;42.524;12.052;2023-05-29T04:57:28;96866.84;;;21.31;100.00
56198;BME280;42700;42.524;12.052;2023-05-29T04:59:53;97718.97;;;21.61;100.00
56198;BME280;42700;42.524;12.052;2023-05-29T05:02:19;97561.72;;;21.59;100.00
56198;BME280;42700;42.524;12.052;2023-05-29T05:04:44;97887.22;;;21.73;100.00
56198;BME280;42700;42.524;12.052;2023-05-29T05:07:11;97469.38;;;21.62;100.00
56198;BME280;42700;42.524;12.052;2023-05-29T05:09:37;96793.41;;;21.39;100.00
56198;BME280;42700;42.524;12.052;2023-05-29T05:12:02;96569.31;;;21.34;100.00
56198;BME280;42700;42.524;12.052;2023-05-29T05:14:28;97431.03;;;21.65;100.00
56198;BME280;42700;42.524;12.052;2023-05-29T05:16:53;97636.50;;;21.75;100.00
56198;BME280;42700;42.524;12.052;2023-05-29T05:19:19;96684.34;;;21.45;100.00
56198;BME280;42700;42.524;12.052;2023-05-29T05:21:44;96670.84;;;21.45;100.00
56198;BME280;42700;42.524;12.052;2023-05-29T05:24:10;97092.75;;;21.58;100.00
56198;BME280;42700;42.524;12.052;2023-05-29T05:26:35;96478.84;;;21.36;100.00
56198;BME280;42700;42.524;12.052;2023-05-29T05:29:01;96783.75;;;21.48;100.00
56198;BME280;42700;42.524;12.052;2023-05-29T05:31:26;96855.56;;;21.49;100.00
56198;BME280;42700;42.524;12.052;2023-05-29T05:33:52;96699.44;;;21.46;100.00
56198;BME280;42700;42.524;12.052;2023-05-29T05:36:18;97163.00;;;21.63;100.00
56198;BME280;42700;42.524;12.052;2023-05-29T05:38:43;97417.63;;;21.75;100.00
56198;BME280;42700;42.524;12.052;2023-05-29T05:41:09;97007.16;;;21.63;100.00
56198;BME280;42700;42.524;12.052;2023-05-29T05:43:35;96825.34;;;21.58;100.00
56198;BME280;42700;42.524;12.052;2023-05-29T05:46:00;97487.94;;;21.80;100.00
56198;BME280;42700;42.524;12.052;2023-05-29T05:48:26;97874.66;;;21.96;100.00
56198;BME280;42700;42.524;12.052;2023-05-29T05:50:51;97431.22;;;21.85;100.00
56198;BME280;42700;42.524;12.052;2023-05-29T05:53:17;97587.50;;;21.88;100.00
56198;BME280;42700;42.524;12.052;2023-05-29T05:55:43;97786.34;;;22.01;100.00
56198;BME280;42700;42.524;12.052;2023-05-29T05:58:08;97964.63;;;22.08;100.00
56198;BME280;42700;42.524;12.052;2023-05-29T06:00:34;98552.09;;;22.34;100.00
56198;BME280;42700;42.524;12.052;2023-05-29T06:03:00;98671.84;;;22.41;100.00
56198;BME280;42700;42.524;12.052;2023-05-29T06:05:28;98725.06;;;22.47;100.00
56198;BME280;42700;42.524;12.052;2023-05-29T06:07:54;98784.06;;;22.57;100.00
56198;BME280;42700;42.524;12.052;2023-05-29T06:10:19;98583.88;;;22.50;100.00
56198;BME280;42700;42.524;12.052;2023-05-29T06:12:45;99675.88;;;22.94;100.00
56198;BME280;42700;42.524;12.052;2023-05-29T06:15:10;99331.69;;;22.89;100.00
56198;BME280;42700;42.524;12.052;2023-05-29T06:17:36;98265.25;;;22.57;100.00
56198;BME280;42700;42.524;12.052;2023-05-29T06:20:01;98908.31;;;22.77;100.00
56198;BME280;42700;42.524;12.052;2023-05-29T06:22:26;98925.78;;;22.81;100.00
56198;BME280;42700;42.524;12.052;2023-05-29T06:24:52;99521.84;;;23.04;100.00
56198;BME280;42700;42.524;12.052;2023-05-29T06:27:17;99284.50;;;23.03;100.00
56198;BME280;42700;42.524;12.052;2023-05-29T06:29:43;99346.41;;;23.07;100.00
56198;BME280;42700;42.524;12.052;2023-05-29T06:32:09;99821.56;;;23.26;100.00
56198;BME280;42700;42.524;12.052;2023-05-29T06:34:34;99636.91;;;23.22;100.00
56198;BME280;42700;42.524;12.052;2023-05-29T06:37:00;99705.66;;;23.28;100.00
56198;BME280;42700;42.524;12.052;2023-05-29T06:39:25;100978.75;;;23.73;100.00
56198;BME280;42700;42.524;12.052;2023-05-29T06:41:51;100668.63;;;23.73;100.00
56198;BME280;42700;42.524;12.052;2023-05-29T06:44:16;100460.63;;;23.73;100.00
56198;BME280;42700;42.524;12.052;2023-05-29T06:46:41;99606.34;;;23.47;100.00
56198;BME280;42700;42.524;12.052;2023-05-29T06:49:07;100908.91;;;23.90;100.00
56198;BME280;42700;42.524;12.052;2023-05-29T06:51:33;102328.09;;;24.47;100.00
56198;BME280;42700;42.524;12.052;2023-05-29T06:53:58;101814.09;;;24.36;100.00
56198;BME280;42700;42.524;12.052;2023-05-29T06:56:24;101546.59;;;24.31;100.00
56198;BME280;42700;42.524;12.052;2023-05-29T06:58:51;100188.88;;;23.98;100.00
56198;BME280;42700;42.524;12.052;2023-05-29T07:01:16;99458.97;;;23.73;100.00
56198;BME280;42700;42.524;12.052;2023-05-29T07:03:42;100376.31;;;23.97;100.00
56198;BME280;42700;42.524;12.052;2023-05-29T07:06:07;100462.13;;;24.04;100.00
56198;BME280;42700;42.524;12.052;2023-05-29T07:08:33;99685.94;;;23.79;100.00
56198;BME280;42700;42.524;12.052;2023-05-29T07:10:58;100607.28;;;24.08;100.00
56198;BME280;42700;42.524;12.052;2023-05-29T07:13:24;102324.84;;;24.62;100.00
56198;BME280;42700;42.524;12.052;2023-05-29T07:15:50;102300.63;;;24.68;100.00
56198;BME280;42700;42.524;12.052;2023-05-29T07:18:15;102572.91;;;24.82;100.00
56198;BME280;42700;42.524;12.052;2023-05-29T07:20:41;103328.44;;;25.06;100.00
56198;BME280;42700;42.524;12.052;2023-05-29T07:23:06;100624.78;;;24.27;100.00
56198;BME280;42700;42.524;12.052;2023-05-29T07:25:32;102752.28;;;24.92;100.00
56198;BME280;42700;42.524;12.052;2023-05-29T07:27:58;102425.94;;;24.83;100.00
56198;BME280;42700;42.524;12.052;2023-05-29T07:30:23;103125.28;;;25.07;100.00
56198;BME280;42700;42.524;12.052;2023-05-29T07:32:49;103830.44;;;25.33;100.00
56198;BME280;42700;42.524;12.052;2023-05-29T07:35:14;103754.00;;;25.36;100.00
56198;BME280;42700;42.524;12.052;2023-05-29T07:37:40;103790.09;;;25.38;100.00
56198;BME280;42700;42.524;12.052;2023-05-29T07:40:06;103033.22;;;25.21;100.00
56198;BME280;42700;42.524;12.052;2023-05-29T07:42:32;102291.84;;;25.01;100.00
56198;BME280;42700;42.524;12.052;2023-05-29T07:44:58;103089.09;;;25.26;100.00
56198;BME280;42700;42.524;12.052;2023-05-29T07:47:24;104437.19;;;25.73;100.00
56198;BME280;42700;42.524;12.052;2023-05-29T07:49:49;103790.31;;;25.57;100.00
56198;BME280;42700;42.524;12.052;2023-05-29T07:52:15;101610.75;;;24.97;100.00
56198;BME280;42700;42.524;12.052;2023-05-29T07:54:41;104329.00;;;25.75;100.00
56198;BME280;42700;42.524;12.052;2023-05-29T07:57:06;104817.50;;;26.01;100.00
56198;BME280;42700;42.524;12.052;2023-05-29T07:59:35;101799.72;;;25.09;100.00
56198;BME280;42700;42.524;12.052;2023-05-29T08:02:00;105195.44;;;26.15;100.00
56198;BME280;42700;42.524;12.052;2023-05-29T08:04:28;103663.34;;;25.77;100.00
56198;BME280;42700;42.524;12.052;2023-05-29T08:06:53;104351.44;;;26.03;100.00
56198;BME280;42700;42.524;12.052;2023-05-29T08:09:19;106237.19;;;26.64;100.00
56198;BME280;42700;42.524;12.052;2023-05-29T08:11:44;105901.59;;;26.64;100.00
56198;BME280;42700;42.524;12.052;2023-05-29T08:14:11;105009.75;;;26.47;100.00
56198;BME280;42700;42.524;12.052;2023-05-29T08:16:37;102934.63;;;25.94;100.00
56198;BME280;42700;42.524;12.052;2023-05-29T08:19:02;104407.56;;;26.41;100.00
56198;BME280;42700;42.524;12.052;2023-05-29T08:21:29;102617.03;;;25.93;100.00
56198;BME280;42700;42.524;12.052;2023-05-29T08:23:57;104828.75;;;26.61;100.00
56198;BME280;42700;42.524;12.052;2023-05-29T08:26:22;103847.28;;;26.46;100.00
56198;BME280;42700;42.524;12.052;2023-05-29T08:28:48;107009.88;;;27.47;100.00
56198;BME280;42700;42.524;12.052;2023-05-29T08:31:13;104307.84;;;26.83;100.00
56198;BME280;42700;42.524;12.052;2023-05-29T08:33:39;103993.06;;;26.75;100.00
56198;BME280;42700;42.524;12.052;2023-05-29T08:36:05;104113.78;;;26.88;100.00
56198;BME280;42700;42.524;12.052;2023-05-29T08:38:30;105519.69;;;27.36;100.00
56198;BME280;42700;42.524;12.052;2023-05-29T08:40:56;104599.41;;;27.23;100.00
56198;BME280;42700;42.524;12.052;2023-05-29T08:43:25;103896.25;;;27.21;100.00
56198;BME280;42700;42.524;12.052;2023-05-29T08:45:55;105826.66;;;27.78;100.00
56198;BME280;42700;42.524;12.052;2023-05-29T08:48:24;105935.38;;;27.89;100.00
56198;BME280;42700;42.524;12.052;2023-05-29T08:50:50;105333.75;;;27.79;100.00
56198;BME280;42700;42.524;12.052;2023-05-29T08:53:17;104120.91;;;27.54;100.00
56198;BME280;42700;42.524;12.052;2023-05-29T08:55:44;104240.16;;;27.65;100.00
56198;BME280;42700;42.524;12.052;2023-05-29T08:58:12;107156.78;;;28.50;100.00
56198;BME280;42700;42.524;12.052;2023-05-29T09:00:38;105912.88;;;28.14;100.00
56198;BME280;42700;42.524;12.052;2023-05-29T09:03:06;102513.00;;;27.34;100.00
56198;BME280;42700;42.524;12.052;2023-05-29T09:05:32;106781.72;;;28.52;100.00
56198;BME280;42700;42.524;12.052;2023-05-29T09:07:59;106106.19;;;28.44;100.00
56198;BME280;42700;42.524;12.052;2023-05-29T09:10:24;103323.09;;;27.76;100.00
56198;BME280;42700;42.524;12.052;2023-05-29T09:12:52;104952.97;;;28.16;100.00
56198;BME280;42700;42.524;12.052;2023-05-29T09:15:19;105201.84;;;28.40;100.00
56198;BME280;42700;42.524;12.052;2023-05-29T09:17:51;107361.09;;;28.96;100.00
56198;BME280;42700;42.524;12.052;2023-05-29T09:20:17;106117.66;;;28.67;100.00
56198;BME280;42700;42.524;12.052;2023-05-29T09:22:52;105510.84;;;28.54;100.00
56198;BME280;42700;42.524;12.052;2023-05-29T09:25:18;106807.81;;;28.96;100.00
56198;BME280;42700;42.524;12.052;2023-05-29T09:27:46;106532.38;;;28.92;100.00
56198;BME280;42700;42.524;12.052;2023-05-29T09:30:12;107173.03;;;29.15;100.00
56198;BME280;42700;42.524;12.052;2023-05-29T09:32:56;105143.72;;;28.74;100.00
56198;BME280;42700;42.524;12.052;2023-05-29T09:35:21;104358.94;;;28.56;100.00
56198;BME280;42700;42.524;12.052;2023-05-29T09:37:47;105337.88;;;28.88;100.00
56198;BME280;42700;42.524;12.052;2023-05-29T09:40:12;105753.63;;;29.07;100.00
56198;BME280;42700;42.524;12.052;2023-05-29T09:42:38;107816.66;;;29.72;100.00
56198;BME280;42700;42.524;12.052;2023-05-29T09:45:04;108282.47;;;29.87;100.00
56198;BME280;42700;42.524;12.052;2023-05-29T09:47:32;106851.00;;;29.60;100.00
56198;BME280;42700;42.524;12.052;2023-05-29T09:50:00;104245.59;;;28.89;100.00
56198;BME280;42700;42.524;12.052;2023-05-29T09:52:26;104081.09;;;28.83;100.00
56198;BME280;42700;42.524;12.052;2023-05-29T09:54:55;106146.59;;;29.44;100.00
56198;BME280;42700;42.524;12.052;2023-05-29T09:57:22;107723.69;;;29.88;100.00
56198;BME280;42700;42.524;12.052;2023-05-29T09:59:49;107556.78;;;29.77;100.00
56198;BME280;42700;42.524;12.052;2023-05-29T10:02:16;106210.59;;;29.43;100.00
56198;BME280;42700;42.524;12.052;2023-05-29T10:04:42;107861.91;;;30.07;100.00
56198;BME280;42700;42.524;12.052;2023-05-29T10:09:44;108456.06;;;30.52;100.00
56198;BME280;42700;42.524;12.052;2023-05-29T10:12:13;108568.50;;;30.57;100.00
56198;BME280;42700;42.524;12.052;2023-05-29T10:14:40;109630.50;;;30.73;100.00
56198;BME280;42700;42.524;12.052;2023-05-29T10:17:07;108705.22;;;30.47;100.00
56198;BME280;42700;42.524;12.052;2023-05-29T10:19:36;108335.53;;;30.43;100.00
56198;BME280;42700;42.524;12.052;2023-05-29T10:22:02;106684.72;;;30.23;100.00
56198;BME280;42700;42.524;12.052;2023-05-29T10:24:28;109343.91;;;31.12;100.00
56198;BME280;42700;42.524;12.052;2023-05-29T10:26:55;109160.28;;;31.23;100.00
56198;BME280;42700;42.524;12.052;2023-05-29T10:37:04;107862.47;;;31.02;100.00
56198;BME280;42700;42.524;12.052;2023-05-29T10:39:31;109812.44;;;31.60;100.00
56198;BME280;42700;42.524;12.052;2023-05-29T10:41:57;107984.78;;;31.13;100.00
56198;BME280;42700;42.524;12.052;2023-05-29T10:49:18;104946.19;;;30.66;92.73
56198;BME280;42700;42.524;12.052;2023-05-29T10:51:44;105103.38;;;30.89;96.12
56198;BME280;42700;42.524;12.052;2023-05-29T10:54:09;102260.00;;;30.29;90.59
56198;BME280;42700;42.524;12.052;2023-05-29T10:56:35;101634.13;;;30.09;88.33
56198;BME280;42700;42.524;12.052;2023-05-29T10:59:01;104311.91;;;30.97;92.17
56198;BME280;42700;42.524;12.052;2023-05-29T11:01:27;102218.22;;;30.49;90.95
56198;BME280;42700;42.524;12.052;2023-05-29T11:06:37;106731.00;;;31.49;92.27
56198;BME280;42700;42.524;12.052;2023-05-29T11:09:03;105680.94;;;31.25;90.47
56198;BME280;42700;42.524;12.052;2023-05-29T11:11:33;104283.44;;;30.98;88.92
56198;BME280;42700;42.524;12.052;2023-05-29T11:14:04;104638.91;;;31.23;91.53
56198;BME280;42700;42.524;12.052;2023-05-29T11:18:56;102687.06;;;31.02;84.47
56198;BME280;42700;42.524;12.052;2023-05-29T11:23:51;100862.78;;;30.73;81.81
56198;BME280;42700;42.524;12.052;2023-05-29T11:26:19;103120.25;;;31.44;88.86
56198;BME280;42700;42.524;12.052;2023-05-29T11:28:45;103249.78;;;31.33;88.14
56198;BME280;42700;42.524;12.052;2023-05-29T11:31:10;103428.34;;;31.25;83.50
56198;BME280;42700;42.524;12.052;2023-05-29T11:33:39;104181.03;;;31.41;81.86
56198;BME280;42700;42.524;12.052;2023-05-29T11:36:06;102353.94;;;31.09;78.04
56198;BME280;42700;42.524;12.052;2023-05-29T11:38:33;101397.97;;;31.09;77.88
56198;BME280;42700;42.524;12.052;2023-05-29T11:41:00;102356.81;;;31.58;76.89
56198;BME280;42700;42.524;12.052;2023-05-29T11:43:26;104417.88;;;32.27;90.83
56198;BME280;42700;42.524;12.052;2023-05-29T11:45:52;106375.72;;;32.23;86.90
56198;BME280;42700;42.524;12.052;2023-05-29T11:48:17;107706.88;;;32.28;80.38
56198;BME280;42700;42.524;12.052;2023-05-29T11:50:43;107647.00;;;32.49;79.00
56198;BME280;42700;42.524;12.052;2023-05-29T11:53:09;101667.22;;;31.39;70.18
56198;BME280;42700;42.524;12.052;2023-05-29T11:55:34;100651.88;;;31.60;75.67
56198;BME280;42700;42.524;12.052;2023-05-29T11:58:01;101547.38;;;31.83;72.99
56198;BME280;42700;42.524;12.052;2023-05-29T12:00:30;102793.09;;;32.34;78.75
56198;BME280;42700;42.524;12.052;2023-05-29T12:02:57;105370.03;;;32.77;82.85
56198;BME280;42700;42.524;12.052;2023-05-29T12:05:23;100535.69;;;31.31;80.87
56198;BME280;42700;42.524;12.052;2023-05-29T12:07:50;102126.19;;;31.36;85.82
56198;BME280;42700;42.524;12.052;2023-05-29T12:10:16;103253.00;;;31.14;83.91
56198;BME280;42700;42.524;12.052;2023-05-29T12:12:42;106751.84;;;31.68;86.69
56198;BME280;42700;42.524;12.052;2023-05-29T12:15:08;105055.44;;;31.14;86.85
56198;BME280;42700;42.524;12.052;2023-05-29T12:17:34;101843.69;;;30.13;89.30
56198;BME280;42700;42.524;12.052;2023-05-29T12:20:01;102110.09;;;29.80;92.43
56198;BME280;42700;42.524;12.052;2023-05-29T12:22:37;101308.94;;;29.17;94.33
56198;BME280;42700;42.524;12.052;2023-05-29T12:25:18;100328.34;;;28.52;95.12
56198;BME280;42700;42.524;12.052;2023-05-29T12:27:45;100147.41;;;28.08;97.50
56198;BME280;42700;42.524;12.052;2023-05-29T12:32:43;106985.25;;;29.08;100.00
56198;BME280;42700;42.524;12.052;2023-05-29T12:37:35;109443.53;;;29.66;97.13
56198;BME280;42700;42.524;12.052;2023-05-29T12:40:16;109259.75;;;29.62;95.83
56198;BME280;42700;42.524;12.052;2023-05-29T12:42:43;115510.56;;;31.35;99.01
56198;BME280;42700;42.524;12.052;2023-05-29T12:45:08;117671.81;;;32.14;97.73
56198;BME280;42700;42.524;12.052;2023-05-29T12:47:35;107225.59;;;29.82;91.02
56198;BME280;42700;42.524;12.052;2023-05-29T12:50:04;109468.72;;;30.53;93.26
56198;BME280;42700;42.524;12.052;2023-05-29T12:52:30;112960.16;;;31.58;94.44
56198;BME280;42700;42.524;12.052;2023-05-29T12:54:56;116139.56;;;32.63;91.29
56198;BME280;42700;42.524;12.052;2023-05-29T12:57:21;114369.28;;;32.61;88.02
56198;BME280;42700;42.524;12.052;2023-05-29T12:59:47;115624.47;;;33.36;88.81
56198;BME280;42700;42.524;12.052;2023-05-29T13:02:12;114493.34;;;33.34;89.06
56198;BME280;42700;42.524;12.052;2023-05-29T13:04:39;106863.13;;;31.62;84.05
56198;BME280;42700;42.524;12.052;2023-05-29T13:07:04;103414.00;;;30.90;84.34